Time;durP1;ratioP1;P1;durP2;ratioP2;P2;SDS_P1;SDS_P2;PMS_P1;PMS_P2;Temp;Humidity;BMP_temperature;BMP_pressure;BME280_temperature;BME280_humidity;BME280_pressure;Samples;Min_cycle;Max_cycle;Signal;HPM_P1;HPM_P2
2023/10/21 00:00:01;;;;;;;25.20;18.70;;;;;;;;;;103794;1291;545003;-78
2023/10/21 00:04:01;;;;;;;24.60;18.70;;;;;;;;;;103348;1298;547822;-79
2023/10/21 00:07:15;;;;;;;25.80;19.30;;;;;;;;;;103751;1291;544926;-76
2023/10/21 00:11:05;;;;;;;31.70;19.60;;;;;;;;;;103959;1288;545688;-73
2023/10/21 00:14:36;;;;;;;29.90;20.30;;;;;;;;;;103742;1291;545140;-74
2023/10/21 00:18:13;;;;;;;28.60;19.90;;;;;;;;;;104136;1292;546117;-74
2023/10/21 00:21:53;;;;;;;30.70;20.80;;;;;;;;;;103690;1295;544722;-73
2023/10/21 00:25:28;;;;;;;33.10;21.70;;;;;;;;;;103724;1289;545129;-77
2023/10/21 00:29:06;;;;;;;29.20;19.70;;;;;;;;;;103763;1294;545049;-74
2023/10/21 00:32:42;;;;;;;29.40;19.30;;;;;;;;;;103720;1292;544996;-74
2023/10/21 00:36:21;;;;;;;29.00;20.50;;;;;;;;;;103365;1295;544994;-74
2023/10/21 00:39:57;;;;;;;28.10;20.60;;;;;;;;;;103649;1295;545731;-74
2023/10/21 00:43:39;;;;;;;30.30;20.30;;;;;;;;;;103782;1292;544853;-73
2023/10/21 00:47:13;;;;;;;28.10;19.80;;;;;;;;;;103777;1291;545012;-74
2023/10/21 00:50:50;;;;;;;35.50;24.70;;;;;;;;;;103758;1303;545360;-80
2023/10/21 00:54:28;;;;;;;34.30;26.20;;;;;;;;;;104054;1286;545004;-74
2023/10/21 00:58:06;;;;;;;31.50;23.70;;;;;;;;;;103831;1292;544872;-73
2023/10/21 01:01:43;;;;;;;32.50;23.90;;;;;;;;;;103792;1289;544784;-74
2023/10/21 01:05:20;;;;;;;29.80;22.70;;;;;;;;;;103982;1286;545138;-74
2023/10/21 01:08:57;;;;;;;31.00;21.70;;;;;;;;;;103729;1291;544774;-76
2023/10/21 01:12:35;;;;;;;30.10;21.90;;;;;;;;;;103712;1289;545703;-73
2023/10/21 01:16:12;;;;;;;30.90;23.20;;;;;;;;;;103739;1292;544743;-77
2023/10/21 01:19:46;;;;;;;29.60;21.50;;;;;;;;;;103825;1290;544730;-76
2023/10/21 01:23:30;;;;;;;31.10;21.00;;;;;;;;;;103855;1291;544917;-73
2023/10/21 01:27:07;;;;;;;29.10;19.20;;;;;;;;;;103865;1293;544828;-73
2023/10/21 01:30:45;;;;;;;31.90;21.90;;;;;;;;;;103775;1289;545107;-72
2023/10/21 01:34:18;;;;;;;28.70;21.70;;;;;;;;;;103867;1289;545420;-73
2023/10/21 01:37:59;;;;;;;25.00;19.50;;;;;;;;;;103712;1292;545941;-73
2023/10/21 01:41:38;;;;;;;30.70;21.80;;;;;;;;;;103700;1292;545184;-73
2023/10/21 01:45:15;;;;;;;30.20;22.00;;;;;;;;;;103747;1291;545636;-72
2023/10/21 01:48:51;;;;;;;25.00;19.10;;;;;;;;;;103732;1295;545852;-73
2023/10/21 01:52:29;;;;;;;26.30;19.10;;;;;;;;;;103869;1288;545865;-73
2023/10/21 01:56:07;;;;;;;27.10;19.80;;;;;;;;;;103813;1294;545492;-73
2023/10/21 01:59:44;;;;;;;27.70;19.70;;;;;;;;;;103838;1292;546435;-72
2023/10/21 02:03:22;;;;;;;27.50;21.70;;;;;;;;;;104023;1289;544766;-73
2023/10/21 02:06:59;;;;;;;29.10;22.00;;;;;;;;;;103860;1301;546470;-79
2023/10/21 02:10:39;;;;;;;30.60;22.30;;;;;;;;;;103751;1293;545643;-73
2023/10/21 02:14:13;;;;;;;32.20;23.10;;;;;;;;;;103867;1293;544995;-73
2023/10/21 02:17:51;;;;;;;34.20;22.20;;;;;;;;;;103854;1288;545055;-72
2023/10/21 02:21:29;;;;;;;32.60;21.50;;;;;;;;;;103743;1291;545663;-73
2023/10/21 02:25:16;;;;;;;30.90;22.10;;;;;;;;;;103752;1304;545063;-73
2023/10/21 02:28:44;;;;;;;32.00;22.60;;;;;;;;;;104120;1289;544771;-74
2023/10/21 02:32:21;;;;;;;29.00;21.00;;;;;;;;;;103556;1295;545563;-73
2023/10/21 02:35:59;;;;;;;26.90;19.60;;;;;;;;;;103817;1289;544983;-73
2023/10/21 02:39:37;;;;;;;28.40;20.30;;;;;;;;;;103787;1291;545616;-74
2023/10/21 02:43:13;;;;;;;29.00;21.10;;;;;;;;;;103749;1292;544862;-74
2023/10/21 02:46:50;;;;;;;28.50;20.80;;;;;;;;;;103781;1289;545343;-73
2023/10/21 02:50:28;;;;;;;29.70;20.90;;;;;;;;;;103809;1289;545544;-73
2023/10/21 02:54:07;;;;;;;26.10;19.50;;;;;;;;;;103644;1295;545668;-73
2023/10/21 02:57:44;;;;;;;29.30;21.60;;;;;;;;;;103734;1294;544937;-74
2023/10/21 03:01:21;;;;;;;30.80;24.00;;;;;;;;;;103739;1292;545367;-76
2023/10/21 03:04:59;;;;;;;28.00;21.50;;;;;;;;;;103782;1295;546003;-73
2023/10/21 03:08:36;;;;;;;28.20;21.40;;;;;;;;;;103808;1295;545585;-73
2023/10/21 03:12:13;;;;;;;26.90;20.80;;;;;;;;;;103738;1291;545338;-73
2023/10/21 03:15:51;;;;;;;24.30;17.60;;;;;;;;;;103695;1292;545519;-73
2023/10/21 03:19:28;;;;;;;25.20;17.80;;;;;;;;;;103770;1294;545562;-74
2023/10/21 03:23:05;;;;;;;27.60;19.30;;;;;;;;;;103713;1292;545037;-73
2023/10/21 03:26:43;;;;;;;28.10;20.70;;;;;;;;;;103773;1290;544958;-73
2023/10/21 03:30:21;;;;;;;23.40;18.20;;;;;;;;;;103721;1289;544885;-73
2023/10/21 03:33:58;;;;;;;26.30;19.80;;;;;;;;;;103766;1292;545653;-78
2023/10/21 03:37:55;;;;;;;22.60;18.00;;;;;;;;;;103412;1294;547970;-73
2023/10/21 03:41:15;;;;;;;22.90;17.60;;;;;;;;;;103759;1289;544804;-73
2023/10/21 03:44:51;;;;;;;25.20;19.20;;;;;;;;;;103739;1289;544997;-73
2023/10/21 03:48:28;;;;;;;23.80;18.70;;;;;;;;;;103806;1292;544982;-77
2023/10/21 03:52:06;;;;;;;23.60;18.10;;;;;;;;;;103899;1289;544836;-74
2023/10/21 03:55:43;;;;;;;36.40;32.40;;;;;;;;;;103909;1292;544889;-72
2023/10/21 03:59:20;;;;;;;35.40;29.80;;;;;;;;;;103751;1289;545196;-72
2023/10/21 04:02:57;;;;;;;31.10;25.80;;;;;;;;;;103722;1292;544923;-73
2023/10/21 04:06:35;;;;;;;28.10;21.40;;;;;;;;;;103810;1292;545005;-73
2023/10/21 04:10:09;;;;;;;26.60;21.40;;;;;;;;;;103824;1292;546062;-72
2023/10/21 04:13:52;;;;;;;28.10;22.00;;;;;;;;;;103760;1292;544990;-73
2023/10/21 04:17:30;;;;;;;24.60;20.60;;;;;;;;;;103824;1290;544997;-73
2023/10/21 04:21:07;;;;;;;28.30;22.40;;;;;;;;;;103776;1292;545058;-73
2023/10/21 04:24:44;;;;;;;26.00;20.70;;;;;;;;;;103752;1292;545683;-73
2023/10/21 04:28:23;;;;;;;29.80;23.20;;;;;;;;;;103616;1292;544947;-73
2023/10/21 04:31:59;;;;;;;27.00;20.90;;;;;;;;;;103767;1291;544813;-76
2023/10/21 04:35:33;;;;;;;23.60;19.10;;;;;;;;;;104046;1289;544768;-73
2023/10/21 04:39:16;;;;;;;23.90;19.30;;;;;;;;;;103793;1291;545633;-73
2023/10/21 04:42:49;;;;;;;23.30;18.30;;;;;;;;;;103769;1292;545062;-79
2023/10/21 04:46:29;;;;;;;27.00;21.30;;;;;;;;;;103979;1296;545488;-73
2023/10/21 04:50:13;;;;;;;29.10;22.40;;;;;;;;;;103908;1290;544877;-73
2023/10/21 04:53:50;;;;;;;29.40;22.00;;;;;;;;;;104007;1289;545786;-79
2023/10/21 04:57:24;;;;;;;35.80;27.80;;;;;;;;;;103724;1289;544916;-73
2023/10/21 05:01:08;;;;;;;31.60;22.20;;;;;;;;;;103705;1291;545066;-73
2023/10/21 05:04:40;;;;;;;32.30;24.20;;;;;;;;;;103841;1288;545007;-73
2023/10/21 05:08:22;;;;;;;28.50;21.00;;;;;;;;;;103690;1289;545005;-75
2023/10/21 05:11:56;;;;;;;26.90;20.90;;;;;;;;;;103741;1295;545345;-75
2023/10/21 05:15:36;;;;;;;26.30;20.50;;;;;;;;;;103833;1289;544973;-74
2023/10/21 05:19:14;;;;;;;26.70;20.00;;;;;;;;;;103759;1294;545973;-77
2023/10/21 05:22:52;;;;;;;25.40;20.60;;;;;;;;;;104052;1293;545007;-73
2023/10/21 05:26:29;;;;;;;26.80;19.90;;;;;;;;;;103761;1289;544726;-73
2023/10/21 05:30:07;;;;;;;26.10;20.40;;;;;;;;;;103693;1290;544940;-73
2023/10/21 05:33:44;;;;;;;28.30;19.80;;;;;;;;;;103722;1289;545520;-72
2023/10/21 05:37:21;;;;;;;30.30;19.90;;;;;;;;;;103823;1292;545833;-75
2023/10/21 05:40:58;;;;;;;27.40;19.50;;;;;;;;;;104030;1288;544890;-73
2023/10/21 05:44:36;;;;;;;26.90;19.30;;;;;;;;;;103961;1289;544943;-74
2023/10/21 05:48:14;;;;;;;25.90;19.30;;;;;;;;;;103801;1290;544959;-77
2023/10/21 05:51:51;;;;;;;27.10;19.90;;;;;;;;;;103733;1291;544783;-72
2023/10/21 05:55:28;;;;;;;25.90;18.80;;;;;;;;;;103875;1289;545100;-73
2023/10/21 05:59:06;;;;;;;23.80;18.30;;;;;;;;;;103812;1292;545368;-73
2023/10/21 06:02:44;;;;;;;21.80;16.90;;;;;;;;;;103820;1292;545046;-73
2023/10/21 06:06:22;;;;;;;24.70;19.00;;;;;;;;;;104036;1289;546422;-73
2023/10/21 06:09:59;;;;;;;21.90;17.40;;;;;;;;;;103792;1291;545277;-74
2023/10/21 06:13:36;;;;;;;21.60;16.60;;;;;;;;;;103751;1293;544785;-72
2023/10/21 06:17:13;;;;;;;21.40;16.80;;;;;;;;;;103902;1288;545093;-74
2023/10/21 06:20:51;;;;;;;22.00;17.50;;;;;;;;;;103747;1292;544910;-72
2023/10/21 06:24:25;;;;;;;24.50;19.00;;;;;;;;;;103877;1292;546007;-73
2023/10/21 06:28:08;;;;;;;22.00;17.40;;;;;;;;;;104076;1286;545332;-73
2023/10/21 06:31:41;;;;;;;29.20;18.10;;;;;;;;;;104121;1287;544931;-76
2023/10/21 06:35:22;;;;;;;21.90;17.00;;;;;;;;;;103737;1292;544932;-73
2023/10/21 06:39:00;;;;;;;24.30;16.80;;;;;;;;;;103840;1290;544765;-74
2023/10/21 06:42:38;;;;;;;28.20;21.60;;;;;;;;;;104112;1284;545075;-73
2023/10/21 06:46:15;;;;;;;41.30;28.70;;;;;;;;;;103756;1292;545031;-73
2023/10/21 06:49:52;;;;;;;59.20;39.20;;;;;;;;;;103913;1288;544961;-73
2023/10/21 06:53:30;;;;;;;55.70;38.60;;;;;;;;;;103779;1302;545191;-74
2023/10/21 06:57:07;;;;;;;56.80;40.40;;;;;;;;;;103739;1289;546332;-77
2023/10/21 07:00:45;;;;;;;40.50;30.90;;;;;;;;;;103851;1288;544986;-74
2023/10/21 07:04:22;;;;;;;36.40;29.40;;;;;;;;;;103738;1292;544855;-77
2023/10/21 07:08:00;;;;;;;36.70;28.20;;;;;;;;;;103615;1291;545011;-77
2023/10/21 07:11:33;;;;;;;34.20;28.10;;;;;;;;;;103932;1292;545077;-78
2023/10/21 07:15:17;;;;;;;35.90;29.70;;;;;;;;;;103696;1292;545042;-78
2023/10/21 07:18:54;;;;;;;35.40;28.30;;;;;;;;;;103761;1295;545771;-78
2023/10/21 07:22:50;;;;;;;34.20;26.30;;;;;;;;;;103709;1292;547803;-79
2023/10/21 07:26:09;;;;;;;30.90;24.80;;;;;;;;;;103761;1289;545166;-73
2023/10/21 07:29:46;;;;;;;31.10;24.70;;;;;;;;;;104113;1286;544751;-74
2023/10/21 07:33:24;;;;;;;30.90;24.30;;;;;;;;;;104107;1289;544867;-74
2023/10/21 07:37:01;;;;;;;29.90;23.90;;;;;;;;;;103745;1291;546642;-77
2023/10/21 07:40:38;;;;;;;27.40;21.70;;;;;;;;;;104112;1289;544773;-73
2023/10/21 07:44:16;;;;;;;28.00;21.50;;;;;;;;;;103818;1290;545139;-75
2023/10/21 07:47:54;;;;;;;26.60;22.20;;;;;;;;;;103774;1298;544933;-76
2023/10/21 07:51:30;;;;;;;26.50;20.90;;;;;;;;;;103946;1289;546302;-78
2023/10/21 07:55:12;;;;;;;25.10;19.60;;;;;;;;;;103781;1291;544780;-78
2023/10/21 07:58:46;;;;;;;24.30;18.80;;;;;;;;;;103780;1292;544862;-75
2023/10/21 08:02:23;;;;;;;22.80;17.90;;;;;;;;;;103733;1294;545105;-76
2023/10/21 08:06:01;;;;;;;24.50;17.60;;;;;;;;;;103825;1288;544906;-79
2023/10/21 08:09:38;;;;;;;23.20;16.70;;;;;;;;;;103750;1301;545090;-74
2023/10/21 08:13:16;;;;;;;20.10;15.80;;;;;;;;;;103714;1289;545178;-76
2023/10/21 08:16:53;;;;;;;24.70;18.10;;;;;;;;;;103367;1294;545479;-78
2023/10/21 08:20:31;;;;;;;20.80;15.80;;;;;;;;;;103849;1294;544801;-75
2023/10/21 08:24:04;;;;;;;19.90;15.70;;;;;;;;;;103898;1289;545266;-80
2023/10/21 08:27:47;;;;;;;20.30;14.80;;;;;;;;;;103642;1291;544987;-79
2023/10/21 08:31:25;;;;;;;20.70;16.40;;;;;;;;;;103739;1292;545047;-79
2023/10/21 08:35:03;;;;;;;20.40;15.90;;;;;;;;;;103724;1290;545192;-79
2023/10/21 08:38:41;;;;;;;17.40;13.20;;;;;;;;;;104608;1280;545023;-79
2023/10/21 08:42:17;;;;;;;21.80;16.60;;;;;;;;;;103773;1289;544772;-80
2023/10/21 08:46:00;;;;;;;19.20;13.80;;;;;;;;;;103858;1288;545451;-79
2023/10/21 08:49:41;;;;;;;16.90;13.20;;;;;;;;;;103771;1290;545055;-74
2023/10/21 08:53:15;;;;;;;18.80;13.50;;;;;;;;;;103676;1291;544790;-72
2023/10/21 08:56:53;;;;;;;19.60;15.00;;;;;;;;;;103857;1291;544879;-74
2023/10/21 09:00:30;;;;;;;21.80;14.80;;;;;;;;;;104013;1289;545937;-75
2023/10/21 09:04:07;;;;;;;18.40;14.60;;;;;;;;;;103884;1289;545055;-74
2023/10/21 09:07:45;;;;;;;18.80;14.30;;;;;;;;;;103803;1295;545051;-73
2023/10/21 09:11:26;;;;;;;16.50;12.50;;;;;;;;;;104230;1286;545099;-73
2023/10/21 09:15:00;;;;;;;16.30;12.30;;;;;;;;;;103887;1302;545852;-74
2023/10/21 09:18:37;;;;;;;17.60;10.60;;;;;;;;;;103782;1293;546212;-75
2023/10/21 09:22:22;;;;;;;15.90;11.50;;;;;;;;;;103862;1290;546051;-75
2023/10/21 09:25:53;;;;;;;9.40;5.20;;;;;;;;;;104158;1286;545252;-75
2023/10/21 09:29:29;;;;;;;7.50;3.90;;;;;;;;;;103839;1290;544848;-76
2023/10/21 09:33:04;;;;;;;6.70;3.70;;;;;;;;;;104081;1289;545977;-75
2023/10/21 09:36:47;;;;;;;6.30;2.80;;;;;;;;;;103777;1292;546392;-76
2023/10/21 09:40:24;;;;;;;8.20;3.00;;;;;;;;;;103769;1289;544893;-79
2023/10/21 09:44:03;;;;;;;7.20;2.50;;;;;;;;;;103829;1289;544794;-77
2023/10/21 09:47:41;;;;;;;5.60;2.70;;;;;;;;;;103852;1294;544963;-79
2023/10/21 09:51:17;;;;;;;5.30;2.80;;;;;;;;;;103883;1291;544931;-79
2023/10/21 09:55:00;;;;;;;6.00;3.00;;;;;;;;;;103788;1290;544922;-79
2023/10/21 09:58:31;;;;;;;8.90;3.30;;;;;;;;;;103898;1292;545395;-76
2023/10/21 10:02:11;;;;;;;6.10;3.20;;;;;;;;;;103781;1291;545565;-80
2023/10/21 10:05:48;;;;;;;7.80;3.60;;;;;;;;;;103749;1292;544757;-77
2023/10/21 10:09:27;;;;;;;6.90;3.60;;;;;;;;;;103692;1293;544964;-76
2023/10/21 10:13:01;;;;;;;6.30;3.60;;;;;;;;;;103914;1288;545173;-77
2023/10/21 10:16:45;;;;;;;9.30;3.90;;;;;;;;;;103765;1289;544746;-77
2023/10/21 10:20:24;;;;;;;10.10;4.70;;;;;;;;;;103753;1291;545069;-76
2023/10/21 10:24:02;;;;;;;8.00;4.30;;;;;;;;;;103678;1292;544826;-77
2023/10/21 10:27:40;;;;;;;8.80;4.50;;;;;;;;;;103677;1292;544937;-78
2023/10/21 10:31:14;;;;;;;7.50;4.40;;;;;;;;;;103955;1291;544741;-78
2023/10/21 10:34:56;;;;;;;9.70;5.50;;;;;;;;;;104187;1288;545028;-78
2023/10/21 10:38:36;;;;;;;8.50;5.30;;;;;;;;;;103853;1289;545248;-78
2023/10/21 10:42:06;;;;;;;8.80;4.90;;;;;;;;;;103757;1289;544607;-78
2023/10/21 10:45:44;;;;;;;8.50;4.80;;;;;;;;;;104117;1288;545689;-77
2023/10/21 10:49:22;;;;;;;8.00;4.80;;;;;;;;;;103713;1290;544863;-76
2023/10/21 10:53:10;;;;;;;8.10;4.80;;;;;;;;;;103847;1290;545009;-78
2023/10/21 10:56:40;;;;;;;7.50;4.80;;;;;;;;;;103813;1291;544729;-77
2023/10/21 11:00:20;;;;;;;8.70;4.60;;;;;;;;;;103736;1290;544866;-77
2023/10/21 11:03:58;;;;;;;8.20;4.70;;;;;;;;;;103814;1292;545545;-77
2023/10/21 11:07:30;;;;;;;7.90;4.30;;;;;;;;;;103771;1293;545487;-78
2023/10/21 11:11:10;;;;;;;8.40;4.70;;;;;;;;;;103739;1292;544999;-77
2023/10/21 11:14:44;;;;;;;7.60;4.50;;;;;;;;;;103635;1289;544732;-77
2023/10/21 11:18:21;;;;;;;8.10;4.90;;;;;;;;;;104367;1284;545176;-76
2023/10/21 11:21:58;;;;;;;8.70;4.90;;;;;;;;;;103797;1291;545071;-77
2023/10/21 11:25:36;;;;;;;7.50;4.70;;;;;;;;;;103753;1295;545800;-77
2023/10/21 11:29:13;;;;;;;8.80;5.00;;;;;;;;;;103650;1291;545025;-77
2023/10/21 11:32:51;;;;;;;8.50;4.70;;;;;;;;;;103712;1294;545009;-77
2023/10/21 11:36:30;;;;;;;7.90;4.10;;;;;;;;;;103965;1286;548158;-78
2023/10/21 11:40:10;;;;;;;8.60;4.30;;;;;;;;;;104018;1290;545424;-78
2023/10/21 11:43:48;;;;;;;9.10;5.20;;;;;;;;;;103753;1292;544789;-76
2023/10/21 11:47:28;;;;;;;6.80;4.20;;;;;;;;;;103841;1292;545626;-76
2023/10/21 11:50:58;;;;;;;7.60;4.20;;;;;;;;;;103806;1291;545017;-79
2023/10/21 11:55:14;;;;;;;7.10;4.00;;;;;;;;;;104680;1286;544969;-78
2023/10/21 12:24:33;;;;;;;15.10;10.80;;;;;;;;;;103608;1291;546358;-77
2023/10/21 12:38:38;;;;;;;7.00;4.40;;;;;;;;;;103778;1292;544930;-77
2023/10/21 12:41:53;;;;;;;8.40;4.60;;;;;;;;;;104103;1290;545199;-75
2023/10/21 12:45:35;;;;;;;6.50;4.00;;;;;;;;;;103755;1288;545770;-75
2023/10/21 12:49:12;;;;;;;8.10;4.30;;;;;;;;;;103849;1292;545065;-75
2023/10/21 12:52:55;;;;;;;7.20;4.50;;;;;;;;;;103681;1292;545002;-75
2023/10/21 12:56:33;;;;;;;7.00;4.10;;;;;;;;;;103785;1302;545071;-76
2023/10/21 13:00:11;;;;;;;6.80;3.80;;;;;;;;;;103723;1289;544922;-75
2023/10/21 13:03:49;;;;;;;7.20;4.00;;;;;;;;;;103484;1293;544841;-75
2023/10/21 13:07:21;;;;;;;6.80;3.90;;;;;;;;;;104330;1289;545496;-75
2023/10/21 13:11:05;;;;;;;6.80;3.70;;;;;;;;;;103721;1289;544770;-75
2023/10/21 13:14:41;;;;;;;6.30;3.70;;;;;;;;;;103727;1290;544949;-76
2023/10/21 13:18:19;;;;;;;8.00;4.70;;;;;;;;;;103719;1292;544954;-75
2023/10/21 13:21:56;;;;;;;8.90;5.80;;;;;;;;;;103815;1302;544854;-76
2023/10/21 13:25:34;;;;;;;7.50;3.70;;;;;;;;;;103736;1293;545096;-75
2023/10/21 13:29:11;;;;;;;6.60;3.60;;;;;;;;;;103790;1292;545590;-75
2023/10/21 13:32:50;;;;;;;6.80;3.30;;;;;;;;;;103695;1292;544954;-75
2023/10/21 13:36:26;;;;;;;7.10;3.90;;;;;;;;;;103805;1289;544832;-77
2023/10/21 13:40:12;;;;;;;6.70;3.60;;;;;;;;;;103864;1291;545613;-77
2023/10/21 13:43:41;;;;;;;7.30;3.60;;;;;;;;;;103776;1292;545762;-76
2023/10/21 13:47:19;;;;;;;7.00;3.50;;;;;;;;;;104079;1289;545975;-76
2023/10/21 13:50:56;;;;;;;10.10;4.80;;;;;;;;;;103774;1291;545490;-76
2023/10/21 13:54:33;;;;;;;7.50;4.60;;;;;;;;;;103785;1289;544860;-76
2023/10/21 13:58:15;;;;;;;6.70;3.30;;;;;;;;;;103757;1289;545319;-75
2023/10/21 14:01:48;;;;;;;7.10;3.80;;;;;;;;;;103668;1291;545615;-76
2023/10/21 14:05:26;;;;;;;6.30;3.60;;;;;;;;;;103658;1292;544964;-75
2023/10/21 14:09:04;;;;;;;6.30;3.30;;;;;;;;;;104547;1285;544959;-76
2023/10/21 14:12:40;;;;;;;6.70;3.40;;;;;;;;;;103721;1291;544993;-76
2023/10/21 14:16:19;;;;;;;6.70;3.20;;;;;;;;;;103726;1291;545455;-76
2023/10/21 14:19:57;;;;;;;6.90;3.90;;;;;;;;;;103780;1288;545450;-75
2023/10/21 14:23:33;;;;;;;8.20;4.40;;;;;;;;;;103662;1292;545052;-75
2023/10/21 14:27:11;;;;;;;8.00;4.40;;;;;;;;;;103986;1289;544789;-75
2023/10/21 14:30:57;;;;;;;8.40;5.00;;;;;;;;;;104120;1285;547801;-76
2023/10/21 14:34:27;;;;;;;12.20;7.30;;;;;;;;;;103734;1291;545346;-75
2023/10/21 14:38:03;;;;;;;13.00;7.30;;;;;;;;;;103786;1291;546361;-75
2023/10/21 14:41:41;;;;;;;14.50;7.90;;;;;;;;;;104053;1288;545599;-75
2023/10/21 14:45:18;;;;;;;16.20;8.30;;;;;;;;;;103850;1291;546198;-75
2023/10/21 14:48:51;;;;;;;16.70;10.10;;;;;;;;;;103895;1289;544954;-75
2023/10/21 14:52:34;;;;;;;18.70;10.80;;;;;;;;;;103785;1301;545992;-74
2023/10/21 14:56:14;;;;;;;19.20;10.80;;;;;;;;;;103791;1289;544869;-76
2023/10/21 14:59:50;;;;;;;18.30;11.00;;;;;;;;;;103699;1290;544900;-76
2023/10/21 15:03:27;;;;;;;16.80;10.20;;;;;;;;;;104077;1299;545552;-75
2023/10/21 15:07:05;;;;;;;16.80;9.00;;;;;;;;;;103708;1289;544798;-75
2023/10/21 15:10:42;;;;;;;13.70;8.00;;;;;;;;;;103859;1288;545588;-75
2023/10/21 15:14:19;;;;;;;12.30;7.10;;;;;;;;;;103756;1290;545355;-75
2023/10/21 15:17:57;;;;;;;12.70;7.10;;;;;;;;;;103931;1289;544964;-76
2023/10/21 15:21:34;;;;;;;11.10;6.90;;;;;;;;;;104121;1285;545839;-75
2023/10/21 15:25:19;;;;;;;15.70;10.50;;;;;;;;;;104049;1286;544820;-75
2023/10/21 15:28:49;;;;;;;15.10;9.20;;;;;;;;;;103776;1292;545668;-74
2023/10/21 15:32:27;;;;;;;14.50;9.40;;;;;;;;;;103777;1291;544956;-75
2023/10/21 15:36:05;;;;;;;12.60;8.60;;;;;;;;;;103749;1289;545023;-75
2023/10/21 15:39:41;;;;;;;11.10;7.30;;;;;;;;;;104449;1285;544952;-74
2023/10/21 15:43:25;;;;;;;10.80;6.50;;;;;;;;;;103583;1295;547959;-74
2023/10/21 15:46:57;;;;;;;10.70;6.20;;;;;;;;;;103757;1289;544827;-75
2023/10/21 15:50:34;;;;;;;11.80;7.30;;;;;;;;;;103662;1294;544978;-79
2023/10/21 15:54:11;;;;;;;11.30;8.10;;;;;;;;;;103524;1295;544793;-75
2023/10/21 15:57:50;;;;;;;16.30;9.90;;;;;;;;;;103770;1289;544915;-74
2023/10/21 16:01:31;;;;;;;20.00;13.50;;;;;;;;;;103753;1292;544764;-74
2023/10/21 16:05:04;;;;;;;17.80;12.00;;;;;;;;;;103614;1295;545150;-74
2023/10/21 16:08:43;;;;;;;21.40;13.70;;;;;;;;;;104084;1289;545083;-79
2023/10/21 16:12:19;;;;;;;20.90;12.60;;;;;;;;;;103799;1291;545575;-74
2023/10/21 16:15:57;;;;;;;23.50;15.10;;;;;;;;;;103784;1292;545263;-74
2023/10/21 16:19:34;;;;;;;24.00;16.40;;;;;;;;;;104041;1288;545107;-74
2023/10/21 16:23:11;;;;;;;31.40;18.20;;;;;;;;;;103681;1292;545033;-79
2023/10/21 16:26:49;;;;;;;54.60;29.90;;;;;;;;;;103799;1292;545258;-76
2023/10/21 16:30:26;;;;;;;96.00;44.70;;;;;;;;;;103691;1292;545745;-78
2023/10/21 16:34:03;;;;;;;57.20;27.30;;;;;;;;;;104146;1286;545414;-74
2023/10/21 16:37:41;;;;;;;34.00;18.50;;;;;;;;;;103744;1292;544834;-74
2023/10/21 16:41:18;;;;;;;35.00;17.20;;;;;;;;;;103794;1292;544833;-75
2023/10/21 16:44:57;;;;;;;55.30;26.00;;;;;;;;;;103817;1291;544874;-74
2023/10/21 16:48:33;;;;;;;43.10;21.50;;;;;;;;;;103726;1289;545744;-74
2023/10/21 16:52:10;;;;;;;48.30;23.60;;;;;;;;;;103801;1292;545231;-75
2023/10/21 16:55:48;;;;;;;36.10;21.00;;;;;;;;;;103801;1290;544754;-73
2023/10/21 16:59:26;;;;;;;25.50;15.20;;;;;;;;;;103762;1289;545487;-74
2023/10/21 17:03:05;;;;;;;27.20;17.10;;;;;;;;;;103752;1291;545055;-74
2023/10/21 17:06:42;;;;;;;28.80;15.90;;;;;;;;;;103734;1292;545225;-74
2023/10/21 17:10:20;;;;;;;37.50;20.80;;;;;;;;;;103759;1292;545186;-73
2023/10/21 17:13:56;;;;;;;84.80;44.00;;;;;;;;;;103758;1291;545004;-73
2023/10/21 17:17:34;;;;;;;96.20;51.70;;;;;;;;;;103773;1291;545415;-73
2023/10/21 17:21:10;;;;;;;73.00;41.20;;;;;;;;;;103749;1292;546461;-80
2023/10/21 17:24:48;;;;;;;64.20;36.00;;;;;;;;;;103751;1290;545111;-81
2023/10/21 17:28:26;;;;;;;67.50;37.90;;;;;;;;;;103877;1290;545815;-77
2023/10/21 17:32:07;;;;;;;57.10;32.60;;;;;;;;;;104002;1289;545067;-73
2023/10/21 17:35:40;;;;;;;46.30;28.50;;;;;;;;;;104101;1289;545441;-75
2023/10/21 17:39:18;;;;;;;24.40;16.50;;;;;;;;;;104775;1285;545083;-74
2023/10/21 17:42:56;;;;;;;23.30;14.50;;;;;;;;;;103913;1289;545614;-73
2023/10/21 17:46:32;;;;;;;31.50;19.00;;;;;;;;;;103747;1292;545460;-74
2023/10/21 17:50:10;;;;;;;23.50;15.60;;;;;;;;;;103772;1289;545743;-73
2023/10/21 17:53:48;;;;;;;24.00;16.20;;;;;;;;;;103814;1289;544809;-73
2023/10/21 17:57:29;;;;;;;27.60;18.70;;;;;;;;;;103784;1290;544926;-74
2023/10/21 18:01:04;;;;;;;28.20;19.50;;;;;;;;;;103687;1292;545199;-77
2023/10/21 18:04:40;;;;;;;28.30;17.90;;;;;;;;;;103742;1290;545956;-73
2023/10/21 18:08:20;;;;;;;28.40;18.00;;;;;;;;;;103909;1289;545141;-73
2023/10/21 18:11:55;;;;;;;27.40;18.60;;;;;;;;;;103737;1291;544905;-81
2023/10/21 18:15:32;;;;;;;33.50;23.30;;;;;;;;;;103744;1298;544820;-73
2023/10/21 18:19:10;;;;;;;34.60;24.80;;;;;;;;;;103732;1292;544995;-73
2023/10/21 18:22:47;;;;;;;33.00;23.70;;;;;;;;;;103642;1293;545584;-74
2023/10/21 18:26:26;;;;;;;33.30;22.60;;;;;;;;;;103795;1291;544800;-73
2023/10/21 18:30:03;;;;;;;41.40;27.00;;;;;;;;;;103819;1289;545078;-73
2023/10/21 18:33:40;;;;;;;41.80;28.40;;;;;;;;;;104048;1286;545025;-73
2023/10/21 18:37:17;;;;;;;36.50;25.90;;;;;;;;;;103764;1289;545272;-73
2023/10/21 18:40:51;;;;;;;40.50;28.00;;;;;;;;;;103928;1293;544848;-73
2023/10/21 18:44:34;;;;;;;42.60;27.30;;;;;;;;;;103794;1291;545307;-79
2023/10/21 18:48:13;;;;;;;39.90;28.10;;;;;;;;;;103745;1294;545028;-73
2023/10/21 18:51:49;;;;;;;47.50;33.10;;;;;;;;;;103584;1292;546545;-74
2023/10/21 18:55:22;;;;;;;49.50;35.80;;;;;;;;;;103739;1293;544864;-74
2023/10/21 18:59:06;;;;;;;48.80;33.80;;;;;;;;;;103754;1290;544976;-81
2023/10/21 19:02:43;;;;;;;44.10;31.40;;;;;;;;;;103853;1292;545060;-74
2023/10/21 19:06:19;;;;;;;44.80;29.80;;;;;;;;;;103871;1288;545110;-73
2023/10/21 19:10:04;;;;;;;38.40;27.10;;;;;;;;;;103709;1292;545634;-73
2023/10/21 19:13:40;;;;;;;49.10;36.10;;;;;;;;;;103518;1295;545805;-73
2023/10/21 19:17:18;;;;;;;44.00;33.20;;;;;;;;;;103746;1295;545541;-73
2023/10/21 19:21:03;;;;;;;45.60;32.10;;;;;;;;;;103807;1291;544757;-73
2023/10/21 19:24:33;;;;;;;41.60;30.60;;;;;;;;;;103536;1292;544865;-73
2023/10/21 19:28:11;;;;;;;38.40;29.40;;;;;;;;;;103747;1292;544942;-73
2023/10/21 19:31:49;;;;;;;36.00;26.90;;;;;;;;;;103716;1290;545451;-73
2023/10/21 19:35:25;;;;;;;35.40;27.00;;;;;;;;;;103812;1290;545257;-73
2023/10/21 19:39:04;;;;;;;32.40;23.10;;;;;;;;;;104553;1288;545258;-74
2023/10/21 19:42:36;;;;;;;34.70;24.50;;;;;;;;;;103926;1290;545053;-76
2023/10/21 19:46:20;;;;;;;31.60;20.60;;;;;;;;;;103754;1292;545624;-73
2023/10/21 19:49:53;;;;;;;46.20;23.50;;;;;;;;;;103900;1289;544799;-73
2023/10/21 19:53:36;;;;;;;57.60;27.90;;;;;;;;;;103634;1291;545803;-74
2023/10/21 19:57:13;;;;;;;50.10;24.60;;;;;;;;;;103765;1291;545287;-77
2023/10/21 20:00:51;;;;;;;48.40;25.00;;;;;;;;;;103716;1292;544861;-77
2023/10/21 20:04:28;;;;;;;48.80;25.00;;;;;;;;;;103823;1288;545799;-73
2023/10/21 20:08:09;;;;;;;48.70;24.30;;;;;;;;;;103762;1289;545853;-73
2023/10/21 20:11:44;;;;;;;44.80;22.00;;;;;;;;;;103643;1291;544787;-73
2023/10/21 20:15:21;;;;;;;38.80;20.90;;;;;;;;;;103764;1297;545210;-73
2023/10/21 20:18:54;;;;;;;32.10;17.00;;;;;;;;;;103849;1292;545948;-73
2023/10/21 20:22:38;;;;;;;32.90;16.80;;;;;;;;;;103718;1294;545430;-74
2023/10/21 20:26:15;;;;;;;32.40;17.10;;;;;;;;;;103791;1289;544975;-76
2023/10/21 20:29:52;;;;;;;29.30;16.00;;;;;;;;;;103692;1292;544976;-77
2023/10/21 20:33:30;;;;;;;28.20;15.00;;;;;;;;;;103750;1292;545972;-83
2023/10/21 20:37:07;;;;;;;27.20;13.90;;;;;;;;;;103831;1289;544978;-76
2023/10/21 20:40:45;;;;;;;23.90;14.60;;;;;;;;;;103788;1294;544847;-80
2023/10/21 20:44:22;;;;;;;24.50;13.40;;;;;;;;;;104500;1285;545936;-73
2023/10/21 20:48:00;;;;;;;25.90;14.00;;;;;;;;;;103729;1291;544955;-76
2023/10/21 20:51:37;;;;;;;27.10;14.30;;;;;;;;;;103742;1289;544633;-74
2023/10/21 20:55:13;;;;;;;23.70;13.80;;;;;;;;;;103849;1289;544962;-74
2023/10/21 20:58:57;;;;;;;22.60;13.30;;;;;;;;;;103716;1291;545946;-73
2023/10/21 21:02:34;;;;;;;24.10;13.00;;;;;;;;;;104066;1289;545003;-74
2023/10/21 21:06:12;;;;;;;21.10;12.10;;;;;;;;;;103657;1304;546002;-73
2023/10/21 21:09:49;;;;;;;20.40;11.70;;;;;;;;;;103714;1294;545774;-76
2023/10/21 21:13:22;;;;;;;21.60;11.20;;;;;;;;;;104650;1283;545238;-73